sensor_id;sensor_type;location;lat;lon;timestamp;pressure;altitude;pressure_sealevel;temperature;humidity
6435;BME280;3250;42.694;23.278;2023-05-24T00:02:21;94547.28;;;12.50;87.17
6435;BME280;3250;42.694;23.278;2023-05-24T00:04:48;94603.53;;;12.85;87.12
6435;BME280;3250;42.694;23.278;2023-05-24T00:07:14;94641.88;;;13.11;86.56
6435;BME280;3250;42.694;23.278;2023-05-24T00:09:42;94596.63;;;12.84;86.42
6435;BME280;3250;42.694;23.278;2023-05-24T00:12:07;94564.38;;;12.59;86.63
6435;BME280;3250;42.694;23.278;2023-05-24T00:14:33;94579.78;;;12.62;86.99
6435;BME280;3250;42.694;23.278;2023-05-24T00:16:58;94617.31;;;12.88;86.78
6435;BME280;3250;42.694;23.278;2023-05-24T00:19:23;94610.19;;;12.88;86.36
6435;BME280;3250;42.694;23.278;2023-05-24T00:21:49;94605.50;;;12.78;86.42
6435;BME280;3250;42.694;23.278;2023-05-24T00:24:15;94631.44;;;12.93;86.49
6435;BME280;3250;42.694;23.278;2023-05-24T00:26:41;94656.34;;;13.09;86.56
6435;BME280;3250;42.694;23.278;2023-05-24T00:29:07;94582.75;;;12.66;86.57
6435;BME280;3250;42.694;23.278;2023-05-24T00:31:32;94640.75;;;12.96;86.74
6435;BME280;3250;42.694;23.278;2023-05-24T00:33:58;94626.38;;;12.92;86.77
6435;BME280;3250;42.694;23.278;2023-05-24T00:36:23;94536.00;;;12.20;86.94
6435;BME280;3250;42.694;23.278;2023-05-24T00:38:49;94635.00;;;12.75;87.59
6435;BME280;3250;42.694;23.278;2023-05-24T00:41:14;94602.59;;;12.57;87.77
6435;BME280;3250;42.694;23.278;2023-05-24T00:43:40;94622.59;;;12.64;87.74
6435;BME280;3250;42.694;23.278;2023-05-24T00:48:47;94609.72;;;12.44;88.74
6435;BME280;3250;42.694;23.278;2023-05-24T00:51:13;94643.50;;;12.66;88.52
6435;BME280;3250;42.694;23.278;2023-05-24T00:53:40;94633.25;;;12.58;88.49
6435;BME280;3250;42.694;23.278;2023-05-24T00:56:07;94624.44;;;12.52;88.52
6435;BME280;3250;42.694;23.278;2023-05-24T00:58:32;94626.25;;;12.52;88.36
6435;BME280;3250;42.694;23.278;2023-05-24T01:01:00;94633.03;;;12.59;88.60
6435;BME280;3250;42.694;23.278;2023-05-24T01:03:29;94620.97;;;12.52;88.42
6435;BME280;3250;42.694;23.278;2023-05-24T01:05:59;94646.47;;;12.58;87.70
6435;BME280;3250;42.694;23.278;2023-05-24T01:11:57;94656.56;;;12.49;88.40
6435;BME280;3250;42.694;23.278;2023-05-24T01:17:34;94644.13;;;12.38;88.41
6435;BME280;3250;42.694;23.278;2023-05-24T01:20:03;94627.50;;;12.26;88.48
6435;BME280;3250;42.694;23.278;2023-05-24T01:28:20;94651.81;;;12.28;89.09
6435;BME280;3250;42.694;23.278;2023-05-24T01:30:46;94630.78;;;12.09;88.65
6435;BME280;3250;42.694;23.278;2023-05-24T01:33:12;94616.97;;;11.96;89.20
6435;BME280;3250;42.694;23.278;2023-05-24T01:35:38;94610.31;;;11.93;89.42
6435;BME280;3250;42.694;23.278;2023-05-24T01:38:07;94636.16;;;12.15;89.38
6435;BME280;3250;42.694;23.278;2023-05-24T01:40:35;94628.81;;;12.05;88.95
6435;BME280;3250;42.694;23.278;2023-05-24T01:43:22;94619.50;;;12.02;89.02
6435;BME280;3250;42.694;23.278;2023-05-24T01:46:18;94647.75;;;12.14;89.41
6435;BME280;3250;42.694;23.278;2023-05-24T01:51:18;94640.44;;;12.16;89.50
6435;BME280;3250;42.694;23.278;2023-05-24T01:53:48;94619.00;;;11.94;89.27
6435;BME280;3250;42.694;23.278;2023-05-24T01:56:16;94647.31;;;12.17;89.16
6435;BME280;3250;42.694;23.278;2023-05-24T01:58:43;94644.31;;;12.13;89.05
6435;BME280;3250;42.694;23.278;2023-05-24T02:01:10;94608.13;;;11.90;88.91
6435;BME280;3250;42.694;23.278;2023-05-24T02:03:37;94601.78;;;11.80;89.04
6435;BME280;3250;42.694;23.278;2023-05-24T02:06:03;94634.53;;;12.02;89.24
6435;BME280;3250;42.694;23.278;2023-05-24T02:08:29;94619.00;;;11.94;89.69
6435;BME280;3250;42.694;23.278;2023-05-24T02:10:54;94608.34;;;11.89;89.48
6435;BME280;3250;42.694;23.278;2023-05-24T02:13:20;94624.28;;;11.94;89.34
6435;BME280;3250;42.694;23.278;2023-05-24T02:15:45;94619.47;;;11.91;89.45
6435;BME280;3250;42.694;23.278;2023-05-24T02:18:12;94597.09;;;11.82;89.82
6435;BME280;3250;42.694;23.278;2023-05-24T02:20:38;94607.09;;;11.91;89.74
6435;BME280;3250;42.694;23.278;2023-05-24T02:23:04;94595.47;;;11.81;89.70
6435;BME280;3250;42.694;23.278;2023-05-24T02:25:31;94633.75;;;12.01;89.44
6435;BME280;3250;42.694;23.278;2023-05-24T02:27:58;94618.78;;;11.95;89.14
6435;BME280;3250;42.694;23.278;2023-05-24T02:30:24;94572.13;;;11.66;89.17
6435;BME280;3250;42.694;23.278;2023-05-24T02:32:49;94629.00;;;11.92;89.15
6435;BME280;3250;42.694;23.278;2023-05-24T02:35:15;94634.72;;;11.89;89.42
6435;BME280;3250;42.694;23.278;2023-05-24T02:37:40;94619.22;;;11.81;89.46
6435;BME280;3250;42.694;23.278;2023-05-24T02:40:06;94593.44;;;11.64;89.65
6435;BME280;3250;42.694;23.278;2023-05-24T02:42:32;94602.16;;;11.65;89.92
6435;BME280;3250;42.694;23.278;2023-05-24T02:44:57;94586.44;;;11.58;89.79
6435;BME280;3250;42.694;23.278;2023-05-24T02:47:22;94608.34;;;11.70;89.39
6435;BME280;3250;42.694;23.278;2023-05-24T02:49:48;94629.16;;;11.79;89.49
6435;BME280;3250;42.694;23.278;2023-05-24T02:52:13;94563.66;;;11.46;89.45
6435;BME280;3250;42.694;23.278;2023-05-24T02:54:40;94604.56;;;11.66;89.02
6435;BME280;3250;42.694;23.278;2023-05-24T02:57:05;94575.63;;;11.48;89.51
6435;BME280;3250;42.694;23.278;2023-05-24T02:59:31;94591.53;;;11.53;89.92
6435;BME280;3250;42.694;23.278;2023-05-24T03:01:58;94611.69;;;11.66;89.47
6435;BME280;3250;42.694;23.278;2023-05-24T03:04:23;94601.66;;;11.56;89.62
6435;BME280;3250;42.694;23.278;2023-05-24T03:06:48;94627.63;;;11.71;89.92
6435;BME280;3250;42.694;23.278;2023-05-24T03:09:14;94603.81;;;11.59;89.45
6435;BME280;3250;42.694;23.278;2023-05-24T03:11:41;94641.31;;;11.80;89.08
6435;BME280;3250;42.694;23.278;2023-05-24T03:14:06;94617.00;;;11.59;89.49
6435;BME280;3250;42.694;23.278;2023-05-24T03:16:34;94626.00;;;11.70;89.47
6435;BME280;3250;42.694;23.278;2023-05-24T03:18:59;94649.94;;;11.87;89.53
6435;BME280;3250;42.694;23.278;2023-05-24T03:21:25;94628.81;;;11.75;89.38
6435;BME280;3250;42.694;23.278;2023-05-24T03:23:51;94661.22;;;11.94;89.36
6435;BME280;3250;42.694;23.278;2023-05-24T03:26:17;94649.28;;;11.91;89.51
6435;BME280;3250;42.694;23.278;2023-05-24T03:28:43;94647.69;;;11.90;89.60
6435;BME280;3250;42.694;23.278;2023-05-24T03:31:09;94659.44;;;12.06;89.67
6435;BME280;3250;42.694;23.278;2023-05-24T03:33:36;94660.13;;;12.01;89.23
6435;BME280;3250;42.694;23.278;2023-05-24T03:36:01;94665.19;;;12.15;89.04
6435;BME280;3250;42.694;23.278;2023-05-24T03:38:28;94676.81;;;12.25;89.26
6435;BME280;3250;42.694;23.278;2023-05-24T03:40:53;94644.91;;;12.15;89.38
6435;BME280;3250;42.694;23.278;2023-05-24T03:43:19;94661.59;;;12.39;89.15
6435;BME280;3250;42.694;23.278;2023-05-24T03:45:45;94668.41;;;12.58;88.30
6435;BME280;3250;42.694;23.278;2023-05-24T03:48:12;94673.72;;;12.70;87.78
6435;BME280;3250;42.694;23.278;2023-05-24T03:50:37;94638.09;;;12.61;88.02
6435;BME280;3250;42.694;23.278;2023-05-24T03:53:03;94639.84;;;12.78;87.63
6435;BME280;3250;42.694;23.278;2023-05-24T03:55:28;94673.81;;;13.10;86.32
6435;BME280;3250;42.694;23.278;2023-05-24T03:57:54;94645.09;;;13.02;85.92
6435;BME280;3250;42.694;23.278;2023-05-24T04:00:19;94650.97;;;13.15;85.25
6435;BME280;3250;42.694;23.278;2023-05-24T04:02:45;94678.53;;;13.43;85.75
6435;BME280;3250;42.694;23.278;2023-05-24T04:05:12;94656.91;;;13.46;85.66
6435;BME280;3250;42.694;23.278;2023-05-24T04:07:39;94657.13;;;13.56;84.11
6435;BME280;3250;42.694;23.278;2023-05-24T04:10:05;94685.09;;;13.92;83.75
6435;BME280;3250;42.694;23.278;2023-05-24T04:12:31;94637.59;;;13.85;83.96
6435;BME280;3250;42.694;23.278;2023-05-24T04:14:58;94688.03;;;14.35;83.48
6435;BME280;3250;42.694;23.278;2023-05-24T04:17:23;94666.38;;;14.39;82.20
6435;BME280;3250;42.694;23.278;2023-05-24T04:19:50;94668.09;;;14.61;81.29
6435;BME280;3250;42.694;23.278;2023-05-24T04:22:16;94683.03;;;14.84;81.38
6435;BME280;3250;42.694;23.278;2023-05-24T04:24:43;94676.06;;;14.95;81.38
6435;BME280;3250;42.694;23.278;2023-05-24T04:27:09;94667.03;;;15.13;80.25
6435;BME280;3250;42.694;23.278;2023-05-24T04:29:35;94656.25;;;15.19;78.73
6435;BME280;3250;42.694;23.278;2023-05-24T04:32:00;94681.75;;;15.59;78.75
6435;BME280;3250;42.694;23.278;2023-05-24T04:34:27;94684.66;;;15.79;77.95
6435;BME280;3250;42.694;23.278;2023-05-24T04:36:54;94692.97;;;16.09;76.96
6435;BME280;3250;42.694;23.278;2023-05-24T04:39:20;94692.69;;;16.33;75.10
6435;BME280;3250;42.694;23.278;2023-05-24T04:41:45;94689.44;;;16.52;74.39
6435;BME280;3250;42.694;23.278;2023-05-24T04:44:11;94709.16;;;16.83;73.77
6435;BME280;3250;42.694;23.278;2023-05-24T04:46:36;94680.66;;;16.79;74.19
6435;BME280;3250;42.694;23.278;2023-05-24T04:49:02;94682.69;;;16.98;72.97
6435;BME280;3250;42.694;23.278;2023-05-24T04:51:27;94707.13;;;17.32;71.29
6435;BME280;3250;42.694;23.278;2023-05-24T04:53:53;94664.38;;;17.07;70.58
6435;BME280;3250;42.694;23.278;2023-05-24T04:56:18;94716.31;;;17.57;71.69
6435;BME280;3250;42.694;23.278;2023-05-24T04:58:44;94702.59;;;17.70;70.73
6435;BME280;3250;42.694;23.278;2023-05-24T05:01:09;94679.50;;;17.86;70.18
6435;BME280;3250;42.694;23.278;2023-05-24T05:03:35;94719.13;;;18.39;68.25
6435;BME280;3250;42.694;23.278;2023-05-24T05:06:00;94734.94;;;18.61;67.26
6435;BME280;3250;42.694;23.278;2023-05-24T05:08:25;94713.63;;;18.66;65.78
6435;BME280;3250;42.694;23.278;2023-05-24T05:10:51;94713.38;;;18.83;64.24
6435;BME280;3250;42.694;23.278;2023-05-24T05:13:16;94737.94;;;19.10;63.68
6435;BME280;3250;42.694;23.278;2023-05-24T05:15:42;94701.38;;;18.91;63.54
6435;BME280;3250;42.694;23.278;2023-05-24T05:18:07;94698.44;;;19.17;64.43
6435;BME280;3250;42.694;23.278;2023-05-24T05:20:32;94705.88;;;19.61;63.51
6435;BME280;3250;42.694;23.278;2023-05-24T05:22:58;94742.84;;;20.23;62.09
6435;BME280;3250;42.694;23.278;2023-05-24T05:25:23;94727.53;;;20.44;60.05
6435;BME280;3250;42.694;23.278;2023-05-24T05:27:49;94694.38;;;20.45;60.28
6435;BME280;3250;42.694;23.278;2023-05-24T05:30:16;94738.78;;;20.90;59.19
6435;BME280;3250;42.694;23.278;2023-05-24T05:32:41;94735.72;;;21.02;58.21
6435;BME280;3250;42.694;23.278;2023-05-24T05:35:07;94707.59;;;21.04;58.42
6435;BME280;3250;42.694;23.278;2023-05-24T05:37:33;94710.09;;;21.30;56.39
6435;BME280;3250;42.694;23.278;2023-05-24T05:39:58;94728.72;;;21.74;56.73
6435;BME280;3250;42.694;23.278;2023-05-24T05:42:23;94717.28;;;21.92;54.85
6435;BME280;3250;42.694;23.278;2023-05-24T05:44:49;94691.47;;;22.01;56.33
6435;BME280;3250;42.694;23.278;2023-05-24T05:47:14;94692.56;;;22.00;54.94
6435;BME280;3250;42.694;23.278;2023-05-24T05:49:40;94721.00;;;21.96;54.44
6435;BME280;3250;42.694;23.278;2023-05-24T05:52:05;94748.97;;;22.38;54.99
6435;BME280;3250;42.694;23.278;2023-05-24T05:54:30;94733.50;;;22.30;53.79
6435;BME280;3250;42.694;23.278;2023-05-24T05:56:56;94730.75;;;22.35;54.56
6435;BME280;3250;42.694;23.278;2023-05-24T05:59:22;94741.03;;;22.70;53.90
6435;BME280;3250;42.694;23.278;2023-05-24T06:01:47;94726.81;;;22.70;52.41
6435;BME280;3250;42.694;23.278;2023-05-24T06:04:16;94748.59;;;23.06;52.89
6435;BME280;3250;42.694;23.278;2023-05-24T06:06:42;94726.19;;;22.97;52.42
6435;BME280;3250;42.694;23.278;2023-05-24T06:09:09;94747.41;;;23.30;52.66
6435;BME280;3250;42.694;23.278;2023-05-24T06:11:35;94745.25;;;23.51;52.03
6435;BME280;3250;42.694;23.278;2023-05-24T06:14:00;94711.34;;;23.18;51.06
6435;BME280;3250;42.694;23.278;2023-05-24T06:16:26;94698.81;;;23.13;51.47
6435;BME280;3250;42.694;23.278;2023-05-24T06:18:53;94710.09;;;23.29;50.58
6435;BME280;3250;42.694;23.278;2023-05-24T06:21:19;94754.69;;;23.30;50.89
6435;BME280;3250;42.694;23.278;2023-05-24T06:23:44;94746.69;;;23.44;52.67
6435;BME280;3250;42.694;23.278;2023-05-24T06:26:10;94683.44;;;23.32;51.54
6435;BME280;3250;42.694;23.278;2023-05-24T06:28:35;94725.56;;;23.69;52.13
6435;BME280;3250;42.694;23.278;2023-05-24T06:31:02;94726.06;;;23.39;50.61
6435;BME280;3250;42.694;23.278;2023-05-24T06:33:27;94734.69;;;23.55;50.50
6435;BME280;3250;42.694;23.278;2023-05-24T06:35:53;94682.34;;;23.52;51.10
6435;BME280;3250;42.694;23.278;2023-05-24T06:38:18;94729.78;;;24.03;51.88
6435;BME280;3250;42.694;23.278;2023-05-24T06:40:43;94720.25;;;24.24;49.73
6435;BME280;3250;42.694;23.278;2023-05-24T06:43:09;94740.16;;;24.51;49.37
6435;BME280;3250;42.694;23.278;2023-05-24T06:45:35;94703.69;;;24.17;49.49
6435;BME280;3250;42.694;23.278;2023-05-24T06:48:02;94742.47;;;24.43;47.76
6435;BME280;3250;42.694;23.278;2023-05-24T06:50:27;94724.31;;;24.22;49.54
6435;BME280;3250;42.694;23.278;2023-05-24T06:52:52;94704.09;;;24.11;48.56
6435;BME280;3250;42.694;23.278;2023-05-24T06:55:18;94721.13;;;24.20;49.69
6435;BME280;3250;42.694;23.278;2023-05-24T06:57:44;94739.88;;;24.52;50.74
6435;BME280;3250;42.694;23.278;2023-05-24T07:00:10;94690.50;;;24.57;51.13
6435;BME280;3250;42.694;23.278;2023-05-24T07:02:39;94731.38;;;25.08;48.85
6435;BME280;3250;42.694;23.278;2023-05-24T07:05:06;94734.34;;;25.21;48.27
6435;BME280;3250;42.694;23.278;2023-05-24T07:07:41;94720.94;;;25.29;48.14
6435;BME280;3250;42.694;23.278;2023-05-24T07:10:08;94729.50;;;25.53;48.66
6435;BME280;3250;42.694;23.278;2023-05-24T07:12:34;94710.09;;;25.65;48.07
6435;BME280;3250;42.694;23.278;2023-05-24T07:15:00;94734.38;;;25.96;47.10
6435;BME280;3250;42.694;23.278;2023-05-24T07:17:25;94695.88;;;25.73;45.93
6435;BME280;3250;42.694;23.278;2023-05-24T07:19:51;94724.03;;;25.89;46.94
6435;BME280;3250;42.694;23.278;2023-05-24T07:22:16;94704.31;;;25.80;45.74
6435;BME280;3250;42.694;23.278;2023-05-24T07:24:42;94740.31;;;25.76;45.62
6435;BME280;3250;42.694;23.278;2023-05-24T07:27:08;94725.84;;;25.72;47.54
6435;BME280;3250;42.694;23.278;2023-05-24T07:29:33;94734.88;;;25.67;47.90
6435;BME280;3250;42.694;23.278;2023-05-24T07:31:59;94719.78;;;25.66;48.94
6435;BME280;3250;42.694;23.278;2023-05-24T07:34:25;94711.97;;;25.96;49.62
6435;BME280;3250;42.694;23.278;2023-05-24T07:36:52;94710.66;;;26.24;49.80
6435;BME280;3250;42.694;23.278;2023-05-24T07:39:19;94733.13;;;26.33;46.41
6435;BME280;3250;42.694;23.278;2023-05-24T07:41:44;94743.03;;;26.46;49.33
6435;BME280;3250;42.694;23.278;2023-05-24T07:44:09;94740.00;;;26.56;46.41
6435;BME280;3250;42.694;23.278;2023-05-24T07:46:36;94721.28;;;26.51;47.44
6435;BME280;3250;42.694;23.278;2023-05-24T07:49:02;94727.47;;;26.52;45.57
6435;BME280;3250;42.694;23.278;2023-05-24T07:51:27;94726.06;;;26.63;44.66
6435;BME280;3250;42.694;23.278;2023-05-24T07:53:52;94717.47;;;26.61;45.60
6435;BME280;3250;42.694;23.278;2023-05-24T07:56:18;94741.41;;;26.93;44.21
6435;BME280;3250;42.694;23.278;2023-05-24T07:58:43;94735.38;;;27.05;45.31
6435;BME280;3250;42.694;23.278;2023-05-24T08:01:11;94739.66;;;27.23;43.40
6435;BME280;3250;42.694;23.278;2023-05-24T08:03:37;94716.28;;;27.27;45.99
6435;BME280;3250;42.694;23.278;2023-05-24T08:06:03;94727.38;;;27.52;42.18
6435;BME280;3250;42.694;23.278;2023-05-24T08:08:29;94737.91;;;27.36;42.90
6435;BME280;3250;42.694;23.278;2023-05-24T08:10:55;94728.06;;;27.40;43.02
6435;BME280;3250;42.694;23.278;2023-05-24T08:13:20;94729.16;;;27.39;42.16
6435;BME280;3250;42.694;23.278;2023-05-24T08:15:46;94708.97;;;27.28;41.44
6435;BME280;3250;42.694;23.278;2023-05-24T08:18:12;94713.75;;;26.96;39.10
6435;BME280;3250;42.694;23.278;2023-05-24T08:20:38;94697.19;;;26.89;40.47
6435;BME280;3250;42.694;23.278;2023-05-24T08:23:04;94713.25;;;27.20;39.58
6435;BME280;3250;42.694;23.278;2023-05-24T08:25:30;94682.25;;;27.26;37.90
6435;BME280;3250;42.694;23.278;2023-05-24T08:27:55;94698.63;;;27.56;39.02
6435;BME280;3250;42.694;23.278;2023-05-24T08:30:22;94729.28;;;27.77;40.85
6435;BME280;3250;42.694;23.278;2023-05-24T08:32:47;94698.28;;;27.66;41.79
6435;BME280;3250;42.694;23.278;2023-05-24T08:35:13;94716.09;;;27.67;39.79
6435;BME280;3250;42.694;23.278;2023-05-24T08:37:38;94701.44;;;27.68;40.39
6435;BME280;3250;42.694;23.278;2023-05-24T08:40:04;94711.13;;;27.77;40.87
6435;BME280;3250;42.694;23.278;2023-05-24T08:42:30;94695.09;;;27.47;35.11
6435;BME280;3250;42.694;23.278;2023-05-24T08:45:22;94721.59;;;27.88;39.24
6435;BME280;3250;42.694;23.278;2023-05-24T08:47:50;94721.66;;;27.62;34.31
6435;BME280;3250;42.694;23.278;2023-05-24T08:50:16;94702.25;;;27.34;34.97
6435;BME280;3250;42.694;23.278;2023-05-24T08:52:42;94725.78;;;27.42;34.66
6435;BME280;3250;42.694;23.278;2023-05-24T08:55:10;94725.03;;;27.33;36.28
6435;BME280;3250;42.694;23.278;2023-05-24T08:57:36;94683.72;;;26.98;38.69
6435;BME280;3250;42.694;23.278;2023-05-24T09:00:08;94698.31;;;27.14;39.40
6435;BME280;3250;42.694;23.278;2023-05-24T09:02:36;94714.38;;;27.11;37.50
6435;BME280;3250;42.694;23.278;2023-05-24T09:05:03;94685.75;;;26.92;35.00
6435;BME280;3250;42.694;23.278;2023-05-24T09:07:30;94693.44;;;26.42;36.35
6435;BME280;3250;42.694;23.278;2023-05-24T09:09:59;94696.63;;;26.36;36.78
6435;BME280;3250;42.694;23.278;2023-05-24T09:12:26;94704.41;;;26.37;37.98
6435;BME280;3250;42.694;23.278;2023-05-24T09:14:54;94695.78;;;26.26;36.48
6435;BME280;3250;42.694;23.278;2023-05-24T09:17:20;94662.97;;;25.93;40.14
6435;BME280;3250;42.694;23.278;2023-05-24T09:19:46;94713.91;;;26.04;36.78
6435;BME280;3250;42.694;23.278;2023-05-24T09:22:14;94704.56;;;26.01;37.53
6435;BME280;3250;42.694;23.278;2023-05-24T09:24:41;94667.75;;;25.66;36.20
6435;BME280;3250;42.694;23.278;2023-05-24T09:27:06;94675.28;;;25.86;40.77
6435;BME280;3250;42.694;23.278;2023-05-24T09:29:35;94708.75;;;26.16;38.40
6435;BME280;3250;42.694;23.278;2023-05-24T09:32:02;94697.00;;;26.12;38.65
6435;BME280;3250;42.694;23.278;2023-05-24T09:34:35;94651.63;;;25.52;37.01
6435;BME280;3250;42.694;23.278;2023-05-24T09:37:02;94619.09;;;25.48;38.42
6435;BME280;3250;42.694;23.278;2023-05-24T09:39:27;94697.13;;;26.07;40.36
6435;BME280;3250;42.694;23.278;2023-05-24T09:41:53;94658.03;;;25.34;34.72
6435;BME280;3250;42.694;23.278;2023-05-24T09:44:23;94691.84;;;25.40;34.36
6435;BME280;3250;42.694;23.278;2023-05-24T09:46:50;94665.38;;;24.97;35.14
6435;BME280;3250;42.694;23.278;2023-05-24T09:49:16;94632.28;;;24.61;36.42
6435;BME280;3250;42.694;23.278;2023-05-24T09:51:41;94693.94;;;24.98;36.06
6435;BME280;3250;42.694;23.278;2023-05-24T09:54:07;94670.59;;;24.94;38.97
6435;BME280;3250;42.694;23.278;2023-05-24T09:56:33;94685.97;;;25.15;34.90
6435;BME280;3250;42.694;23.278;2023-05-24T09:59:04;94678.56;;;24.99;34.93
6435;BME280;3250;42.694;23.278;2023-05-24T10:01:30;94688.97;;;25.14;39.37
6435;BME280;3250;42.694;23.278;2023-05-24T10:03:57;94688.41;;;25.26;35.91
6435;BME280;3250;42.694;23.278;2023-05-24T10:06:24;94688.78;;;25.33;36.82
6435;BME280;3250;42.694;23.278;2023-05-24T10:08:50;94692.38;;;25.50;36.01
6435;BME280;3250;42.694;23.278;2023-05-24T10:11:17;94688.03;;;25.63;36.18
6435;BME280;3250;42.694;23.278;2023-05-24T10:13:43;94669.28;;;25.58;36.64
6435;BME280;3250;42.694;23.278;2023-05-24T10:16:08;94648.56;;;25.45;36.63
6435;BME280;3250;42.694;23.278;2023-05-24T10:18:34;94640.72;;;25.57;40.68
6435;BME280;3250;42.694;23.278;2023-05-24T10:21:00;94686.41;;;25.84;36.04
6435;BME280;3250;42.694;23.278;2023-05-24T10:23:30;94656.00;;;25.70;34.33
6435;BME280;3250;42.694;23.278;2023-05-24T10:26:05;94684.59;;;25.71;33.47
6435;BME280;3250;42.694;23.278;2023-05-24T10:28:39;94681.84;;;25.63;33.81
6435;BME280;3250;42.694;23.278;2023-05-24T10:31:10;94683.91;;;25.43;34.14
6435;BME280;3250;42.694;23.278;2023-05-24T10:33:37;94671.72;;;25.46;39.48
6435;BME280;3250;42.694;23.278;2023-05-24T10:36:05;94676.22;;;25.50;34.28
6435;BME280;3250;42.694;23.278;2023-05-24T10:38:33;94647.03;;;24.99;34.14
6435;BME280;3250;42.694;23.278;2023-05-24T10:40:58;94667.13;;;25.15;36.51
6435;BME280;3250;42.694;23.278;2023-05-24T10:43:24;94623.47;;;24.69;35.35
6435;BME280;3250;42.694;23.278;2023-05-24T10:45:50;94642.38;;;24.77;34.50
6435;BME280;3250;42.694;23.278;2023-05-24T10:50:42;94640.94;;;24.58;35.94
6435;BME280;3250;42.694;23.278;2023-05-24T10:53:15;94604.72;;;24.41;36.66
6435;BME280;3250;42.694;23.278;2023-05-24T10:56:00;94642.19;;;24.74;35.36
6435;BME280;3250;42.694;23.278;2023-05-24T11:01:31;94625.44;;;24.77;37.49
6435;BME280;3250;42.694;23.278;2023-05-24T11:04:14;94641.81;;;25.03;37.02
6435;BME280;3250;42.694;23.278;2023-05-24T11:06:53;94644.31;;;25.22;35.87
6435;BME280;3250;42.694;23.278;2023-05-24T11:09:20;94643.75;;;25.11;35.21
6435;BME280;3250;42.694;23.278;2023-05-24T11:11:47;94642.00;;;25.06;37.10
6435;BME280;3250;42.694;23.278;2023-05-24T11:14:17;94610.63;;;24.88;35.61
6435;BME280;3250;42.694;23.278;2023-05-24T11:16:47;94635.56;;;25.16;35.76
6435;BME280;3250;42.694;23.278;2023-05-24T11:19:16;94643.44;;;25.35;35.24
6435;BME280;3250;42.694;23.278;2023-05-24T11:21:43;94590.63;;;25.03;35.01
6435;BME280;3250;42.694;23.278;2023-05-24T11:24:10;94636.34;;;25.39;35.52
6435;BME280;3250;42.694;23.278;2023-05-24T11:26:36;94596.19;;;25.06;34.67
6435;BME280;3250;42.694;23.278;2023-05-24T11:29:02;94597.91;;;25.02;36.82
6435;BME280;3250;42.694;23.278;2023-05-24T11:31:28;94590.13;;;25.01;35.92
6435;BME280;3250;42.694;23.278;2023-05-24T11:33:53;94632.34;;;25.36;35.76
6435;BME280;3250;42.694;23.278;2023-05-24T11:36:19;94634.44;;;25.39;35.65
6435;BME280;3250;42.694;23.278;2023-05-24T11:38:48;94626.16;;;25.36;35.96
6435;BME280;3250;42.694;23.278;2023-05-24T11:41:14;94570.81;;;24.99;36.65
6435;BME280;3250;42.694;23.278;2023-05-24T11:43:39;94512.63;;;24.75;37.63
6435;BME280;3250;42.694;23.278;2023-05-24T11:46:06;94620.06;;;25.52;37.43
6435;BME280;3250;42.694;23.278;2023-05-24T11:48:31;94601.38;;;25.56;35.81
6435;BME280;3250;42.694;23.278;2023-05-24T11:50:57;94561.44;;;25.27;36.01
6435;BME280;3250;42.694;23.278;2023-05-24T11:53:24;94592.94;;;25.49;34.87
6435;BME280;3250;42.694;23.278;2023-05-24T11:55:50;94548.25;;;25.26;35.55
6435;BME280;3250;42.694;23.278;2023-05-24T12:00:46;94605.53;;;25.62;34.96
6435;BME280;3250;42.694;23.278;2023-05-24T12:03:12;94587.66;;;25.44;34.43
6435;BME280;3250;42.694;23.278;2023-05-24T12:05:38;94563.72;;;25.11;35.78
6435;BME280;3250;42.694;23.278;2023-05-24T12:08:08;94598.41;;;25.35;34.08
6435;BME280;3250;42.694;23.278;2023-05-24T12:10:35;94601.47;;;25.42;35.53
6435;BME280;3250;42.694;23.278;2023-05-24T12:13:04;94587.97;;;25.34;34.42
6435;BME280;3250;42.694;23.278;2023-05-24T12:15:30;94602.25;;;25.43;35.27
6435;BME280;3250;42.694;23.278;2023-05-24T12:17:56;94590.72;;;25.51;37.89
6435;BME280;3250;42.694;23.278;2023-05-24T12:20:22;94594.13;;;25.65;35.19
6435;BME280;3250;42.694;23.278;2023-05-24T12:22:52;94574.72;;;25.54;33.99
6435;BME280;3250;42.694;23.278;2023-05-24T12:25:18;94595.00;;;25.52;34.93
6435;BME280;3250;42.694;23.278;2023-05-24T12:27:52;94542.81;;;25.17;35.88
6435;BME280;3250;42.694;23.278;2023-05-24T12:30:25;94578.66;;;25.48;34.49
6435;BME280;3250;42.694;23.278;2023-05-24T12:32:51;94549.69;;;25.23;34.58
6435;BME280;3250;42.694;23.278;2023-05-24T12:35:20;94581.81;;;25.42;34.07
6435;BME280;3250;42.694;23.278;2023-05-24T12:37:47;94566.03;;;25.27;32.77
6435;BME280;3250;42.694;23.278;2023-05-24T12:42:44;94565.41;;;25.30;38.49
6435;BME280;3250;42.694;23.278;2023-05-24T12:45:10;94552.69;;;25.22;34.96
6435;BME280;3250;42.694;23.278;2023-05-24T12:47:37;94571.19;;;25.45;35.44
6435;BME280;3250;42.694;23.278;2023-05-24T12:50:02;94548.00;;;25.36;34.17
6435;BME280;3250;42.694;23.278;2023-05-24T12:52:27;94552.13;;;25.33;36.45
6435;BME280;3250;42.694;23.278;2023-05-24T12:54:53;94549.25;;;25.30;34.30
6435;BME280;3250;42.694;23.278;2023-05-24T12:57:18;94516.38;;;25.19;33.29
6435;BME280;3250;42.694;23.278;2023-05-24T12:59:44;94536.25;;;25.32;33.75
6435;BME280;3250;42.694;23.278;2023-05-24T13:02:09;94564.03;;;25.41;34.62
6435;BME280;3250;42.694;23.278;2023-05-24T13:04:35;94561.63;;;25.31;34.59
6435;BME280;3250;42.694;23.278;2023-05-24T13:07:01;94534.19;;;24.98;35.81
6435;BME280;3250;42.694;23.278;2023-05-24T13:09:27;94551.75;;;24.95;36.15
6435;BME280;3250;42.694;23.278;2023-05-24T13:11:54;94509.28;;;24.70;35.58
6435;BME280;3250;42.694;23.278;2023-05-24T13:14:19;94502.59;;;24.67;35.63
6435;BME280;3250;42.694;23.278;2023-05-24T13:16:45;94550.22;;;25.03;36.60
6435;BME280;3250;42.694;23.278;2023-05-24T13:19:11;94521.13;;;24.91;36.55
6435;BME280;3250;42.694;23.278;2023-05-24T13:21:36;94548.84;;;25.14;35.81
6435;BME280;3250;42.694;23.278;2023-05-24T13:24:02;94548.38;;;25.12;36.41
6435;BME280;3250;42.694;23.278;2023-05-24T13:26:28;94521.81;;;24.97;35.49
6435;BME280;3250;42.694;23.278;2023-05-24T13:28:55;94507.59;;;24.82;36.42
6435;BME280;3250;42.694;23.278;2023-05-24T13:31:20;94546.59;;;25.07;36.33
6435;BME280;3250;42.694;23.278;2023-05-24T13:33:45;94533.22;;;24.94;37.01
6435;BME280;3250;42.694;23.278;2023-05-24T13:36:11;94530.50;;;24.94;36.97